• Join FlightAware (Why Join?)
  • Login
  • US Flag 
01:30AM EDT


 

Airport Tracker/Info


-or-


 

Live Flight TrackerFlight Track Log ✈ LYM1725 ✈ 03-May-2013 ✈ KRIW - KDEN

Flight Track Log - Related Links

Times and Time Zones

All times are in EDT time to prevent confusion due to time zone crossing. See the LYM1725 flight status page for this flight to view local times or setup timezone preferences in your user account.

Time Position Orientation Groundspeed Altitude Reporting Facility
EDT Latitude Longitude Course Direction KTS MPH feet Rate Location/Type
09:02PM 43.0175 -108.3703 127° Southeast 211 243 8,700  Level Salt Lake Center
09:03PM 42.9844 -108.3094 127° Southeast 207 238 10,400 1,620 Climbing Salt Lake Center
09:04PM 42.9478 -108.2294 122° Southeast 220 253 12,100 1,620 Climbing Salt Lake Center
09:05PM 42.9083 -108.1444 122° Southeast 231 266 13,800 1,620 Climbing Salt Lake Center
09:06PM 42.8700 -108.0761 127° Southeast 236 272 15,500 1,260 Climbing Salt Lake Center
09:07PM 42.8311 -108.0092 128° Southeast 235 270 16,500 1,320 Climbing Salt Lake Center
09:08PM 42.7797 -107.9297 131° Southeast 244 281 18,300 1,380 Climbing Salt Lake Center
09:09PM 42.7383 -107.8633 130° Southeast 240 276 19,400 1,140 Climbing Salt Lake Center
09:10PM 42.6892 -107.7828 130° Southeast 245 282 20,700 720 Climbing Salt Lake Center
09:11PM 42.6436 -107.7136 132° Southeast 253 291 20,900 120 Climbing Salt Lake Center
09:12PM 42.5847 -107.6247 132° Southeast 281 323 21,000  Climbing Salt Lake Center
09:13PM 42.5333 -107.5439 131° Southeast 291 335 21,000  Level Salt Lake Center
09:14PM 42.4825 -107.4622 130° Southeast 295 339 21,000  Level Salt Lake Center
09:15PM 42.4206 -107.3658 131° Southeast 303 349 21,000  Level Salt Lake Center
09:15PM 42.4047 -107.3378 127° Southeast 301 346 21,000 -120 Level Denver Center
09:17PM 42.3425 -107.2425 131° Southeast 303 349 20,900 -60 Descending Denver Center
09:18PM 42.2889 -107.1614 132° Southeast 301 346 20,900  Level Denver Center
09:19PM 42.2250 -107.0678 133° Southeast 302 348 21,000  Climbing Denver Center
09:20PM 42.1533 -106.9567 131° Southeast 307 353 21,000 -60 Level Denver Center
09:21PM 42.1000 -106.8747 131° Southeast 306 352 20,900  Descending Denver Center
09:22PM 42.0461 -106.7919 131° Southeast 308 354 21,000  Climbing Denver Center
09:23PM 41.9833 -106.6953 131° Southeast 306 352 21,000  Level Denver Center
09:24PM 41.9383 -106.6250 131° Southeast 309 356 21,000 -60 Level Denver Center
09:25PM 41.8681 -106.5150 131° Southeast 304 350 20,900  Descending Denver Center
09:26PM 41.8097 -106.4297 133° Southeast 301 346 21,100  Climbing Denver Center
09:27PM 41.7550 -106.3481 132° Southeast 304 350 20,900 -120 Descending Denver Center
09:28PM 41.6914 -106.2528 132° Southeast 308 354 20,900  Level Denver Center
09:29PM 41.6356 -106.1719 133° Southeast 310 357 20,900  Level Denver Center
09:30PM 41.5647 -106.0628 131° Southeast 308 354 20,900  Level Denver Center
09:31PM 41.5094 -105.9794 132° Southeast 313 360 21,000  Climbing Denver Center
09:32PM 41.4458 -105.8842 132° Southeast 310 357 20,900 -300 Descending Denver Center
09:33PM 41.3897 -105.8028 133° Southeast 311 358 20,400 -780 Descending Denver Center
09:34PM 41.3233 -105.7003 131° Southeast 325 374 19,400 -900 Descending Denver Center
09:36PM 41.2628 -105.6153 133° Southeast 329 379 18,600 -840 Descending Denver Center
09:37PM 41.1919 -105.5150 133° Southeast 333 383 17,700 -960 Descending Denver Center
09:38PM 41.1317 -105.4275 132° Southeast 334 384 16,700 -1,260 Descending Denver Center
09:39PM 41.0608 -105.3286 134° Southeast 333 383 15,100 -1,260 Descending Denver Center
09:40PM 40.9969 -105.2422 134° Southeast 329 379 14,200 -900 Descending Denver Center
09:41PM 40.9350 -105.1542 133° Southeast 325 374 13,300 -600 Descending Denver Center
09:42PM 40.8750 -105.0683 133° Southeast 318 366 13,000 -120 Descending Denver Center
09:43PM 40.8158 -104.9844 133° Southeast 312 359 13,100 -360 Climbing Denver Center
09:44PM 40.7347 -104.9242 151° Southeast 319 367 12,300 -720 Descending Denver Center
09:45PM 40.6417 -104.9028 170° South 311 358 11,700 -540 Descending Denver Center
09:46PM 40.5597 -104.8814 169° South 301 346 11,200 -300 Descending Denver Center
09:47PM 40.4739 -104.8592 169° South 294 338 11,100 -60 Descending Denver Center
09:48PM 40.3922 -104.8375 169° South 298 343 11,100  Level Denver Center
09:49PM 40.3125 -104.8142 167° South 292 336 11,100  Level Denver Center
09:50PM 40.2219 -104.8083 177° South 300 345 11,100  Level Denver Center
09:51PM 40.1403 -104.8119 182° South 297 342 11,100  Level Denver Center
09:52PM 40.0492 -104.8100 179° South 305 351 11,100 -60 Level Denver Center
09:53PM 39.9717 -104.8083 179° South 285 328 11,000  Descending Denver Center
09:54PM 39.8908 -104.8056 178° South 272 313 11,100  Climbing Denver Center
09:55PM 39.8164 -104.8017 178° South 271 312 11,100 -240 Level Denver Center
09:56PM 39.7364 -104.8008 180° South 269 310 10,700 -780 Descending Denver Center
09:57PM 39.6786 -104.7992 179° South 251 289 9,500 -1,020 Descending Denver Center
09:58PM 39.6578 -104.7106 107° East 233 268 8,700 -780 Descending Denver Center
09:59PM 39.6864 -104.6625 52° Northeast 216 249 7,900 -420 Descending Denver Center
10:00PM 39.7519 -104.6636 359° North 221 254 7,900 -780 Level Denver Center
10:02PM 39.8011 -104.6617 North 182 209 6,200 -1,140 Descending Denver Center
10:03PM 39.8447 -104.6617 360° North 123 142 5,400 -780 Descending Denver Center